sensor_id;sensor_type;location;lat;lon;timestamp;pressure;altitude;pressure_sealevel;temperature;humidity
72308;BME280;60257;42.638;23.376;2022-08-05T00:01:01;94731.00;;;19.45;58.74
72308;BME280;60257;42.638;23.376;2022-08-05T00:03:26;94737.34;;;19.42;58.17
72308;BME280;60257;42.638;23.376;2022-08-05T00:05:53;94739.34;;;19.38;58.33
72308;BME280;60257;42.638;23.376;2022-08-05T00:08:19;94733.44;;;19.32;58.60
72308;BME280;60257;42.638;23.376;2022-08-05T00:10:44;94733.50;;;19.25;59.00
72308;BME280;60257;42.638;23.376;2022-08-05T00:13:10;94731.06;;;19.31;59.44
72308;BME280;60257;42.638;23.376;2022-08-05T00:15:35;94731.91;;;19.24;59.54
72308;BME280;60257;42.638;23.376;2022-08-05T00:18:01;94732.69;;;19.21;59.31
72308;BME280;60257;42.638;23.376;2022-08-05T00:20:26;94728.00;;;19.15;59.93
72308;BME280;60257;42.638;23.376;2022-08-05T00:22:52;94721.28;;;19.12;60.23
72308;BME280;60257;42.638;23.376;2022-08-05T00:25:17;94725.22;;;19.11;60.69
72308;BME280;60257;42.638;23.376;2022-08-05T00:27:43;94721.28;;;19.09;61.35
72308;BME280;60257;42.638;23.376;2022-08-05T00:30:08;94718.53;;;19.09;61.85
72308;BME280;60257;42.638;23.376;2022-08-05T00:32:34;94714.97;;;19.08;61.70
72308;BME280;60257;42.638;23.376;2022-08-05T00:35:00;94724.44;;;19.07;61.53
72308;BME280;60257;42.638;23.376;2022-08-05T00:37:25;94721.66;;;19.14;61.22
72308;BME280;60257;42.638;23.376;2022-08-05T00:39:51;94718.09;;;19.14;61.36
72308;BME280;60257;42.638;23.376;2022-08-05T00:42:32;94709.41;;;19.08;61.26
72308;BME280;60257;42.638;23.376;2022-08-05T00:44:58;94720.53;;;19.01;61.44
72308;BME280;60257;42.638;23.376;2022-08-05T00:47:23;94725.72;;;18.95;61.67
72308;BME280;60257;42.638;23.376;2022-08-05T00:49:49;94725.31;;;18.90;61.04
72308;BME280;60257;42.638;23.376;2022-08-05T00:52:14;94720.19;;;18.88;60.99
72308;BME280;60257;42.638;23.376;2022-08-05T00:54:39;94713.84;;;18.88;61.28
72308;BME280;60257;42.638;23.376;2022-08-05T00:57:05;94714.66;;;18.85;61.39
72308;BME280;60257;42.638;23.376;2022-08-05T00:59:30;94714.28;;;18.83;61.15
72308;BME280;60257;42.638;23.376;2022-08-05T01:01:56;94721.38;;;18.84;60.14
72308;BME280;60257;42.638;23.376;2022-08-05T01:04:21;94716.66;;;18.84;60.08
72308;BME280;60257;42.638;23.376;2022-08-05T01:06:47;94712.31;;;18.80;60.21
72308;BME280;60257;42.638;23.376;2022-08-05T01:09:13;94723.38;;;18.80;60.55
72308;BME280;60257;42.638;23.376;2022-08-05T01:11:39;94722.19;;;18.77;60.51
72308;BME280;60257;42.638;23.376;2022-08-05T01:14:27;94715.88;;;18.73;60.29
72308;BME280;60257;42.638;23.376;2022-08-05T01:17:02;94716.25;;;18.82;60.23
72308;BME280;60257;42.638;23.376;2022-08-05T01:19:40;94714.69;;;18.78;60.22
72308;BME280;60257;42.638;23.376;2022-08-05T01:27:56;94719.88;;;18.58;60.56
72308;BME280;60257;42.638;23.376;2022-08-05T01:30:33;94721.84;;;18.50;60.75
72308;BME280;60257;42.638;23.376;2022-08-05T01:33:06;94720.28;;;18.42;61.59
72308;BME280;60257;42.638;23.376;2022-08-05T01:35:36;94714.75;;;18.42;61.98
72308;BME280;60257;42.638;23.376;2022-08-05T01:38:05;94720.28;;;18.42;61.38
72308;BME280;60257;42.638;23.376;2022-08-05T01:40:32;94729.00;;;18.37;61.70
72308;BME280;60257;42.638;23.376;2022-08-05T01:43:00;94724.25;;;18.41;61.21
72308;BME280;60257;42.638;23.376;2022-08-05T01:45:28;94728.16;;;18.47;61.39
72308;BME280;60257;42.638;23.376;2022-08-05T01:47:55;94720.31;;;18.35;61.26
72308;BME280;60257;42.638;23.376;2022-08-05T01:50:26;94722.28;;;18.35;61.72
72308;BME280;60257;42.638;23.376;2022-08-05T01:52:55;94731.75;;;18.34;61.84
72308;BME280;60257;42.638;23.376;2022-08-05T01:55:23;94727.03;;;18.20;62.49
72308;BME280;60257;42.638;23.376;2022-08-05T01:57:52;94719.53;;;18.13;62.32
72308;BME280;60257;42.638;23.376;2022-08-05T02:00:18;94721.50;;;18.20;61.77
72308;BME280;60257;42.638;23.376;2022-08-05T02:02:51;94729.00;;;18.19;61.82
72308;BME280;60257;42.638;23.376;2022-08-05T02:05:20;94722.69;;;18.19;62.26
72308;BME280;60257;42.638;23.376;2022-08-05T02:07:46;94721.09;;;18.29;61.96
72308;BME280;60257;42.638;23.376;2022-08-05T02:10:12;94725.47;;;18.26;61.55
72308;BME280;60257;42.638;23.376;2022-08-05T02:15:20;94725.84;;;18.25;62.19
72308;BME280;60257;42.638;23.376;2022-08-05T02:17:50;94732.16;;;18.14;62.33
72308;BME280;60257;42.638;23.376;2022-08-05T02:20:25;94725.47;;;18.23;62.05
72308;BME280;60257;42.638;23.376;2022-08-05T02:22:57;94717.94;;;18.27;61.95
72308;BME280;60257;42.638;23.376;2022-08-05T02:25:27;94718.75;;;18.20;62.44
72308;BME280;60257;42.638;23.376;2022-08-05T02:27:55;94719.53;;;18.17;62.49
72308;BME280;60257;42.638;23.376;2022-08-05T02:30:22;94712.03;;;18.14;62.43
72308;BME280;60257;42.638;23.376;2022-08-05T02:32:52;94725.06;;;18.10;62.84
72308;BME280;60257;42.638;23.376;2022-08-05T02:35:20;94721.50;;;18.09;62.71
72308;BME280;60257;42.638;23.376;2022-08-05T02:37:48;94712.03;;;18.07;62.73
72308;BME280;60257;42.638;23.376;2022-08-05T02:40:16;94714.78;;;18.14;62.38
72308;BME280;60257;42.638;23.376;2022-08-05T02:42:43;94714.00;;;18.10;62.88
72308;BME280;60257;42.638;23.376;2022-08-05T02:45:11;94710.44;;;18.09;63.04
72308;BME280;60257;42.638;23.376;2022-08-05T02:47:37;94718.75;;;18.06;63.02
72308;BME280;60257;42.638;23.376;2022-08-05T02:50:06;94709.28;;;18.17;62.17
72308;BME280;60257;42.638;23.376;2022-08-05T02:52:32;94714.38;;;18.19;62.11
72308;BME280;60257;42.638;23.376;2022-08-05T02:55:01;94717.97;;;18.05;62.42
72308;BME280;60257;42.638;23.376;2022-08-05T02:57:28;94719.56;;;18.03;62.77
72308;BME280;60257;42.638;23.376;2022-08-05T02:59:54;94712.03;;;18.00;63.05
72308;BME280;60257;42.638;23.376;2022-08-05T03:02:24;94722.28;;;17.89;63.61
72308;BME280;60257;42.638;23.376;2022-08-05T03:04:53;94710.88;;;17.83;63.74
72308;BME280;60257;42.638;23.376;2022-08-05T03:07:20;94722.31;;;17.82;63.44
72308;BME280;60257;42.638;23.376;2022-08-05T03:09:47;94716.41;;;17.83;63.66
72308;BME280;60257;42.638;23.376;2022-08-05T03:12:48;94719.53;;;17.85;63.51
72308;BME280;60257;42.638;23.376;2022-08-05T03:15:13;94721.91;;;17.87;62.74
72308;BME280;60257;42.638;23.376;2022-08-05T03:17:39;94721.91;;;17.87;62.55
72308;BME280;60257;42.638;23.376;2022-08-05T03:20:05;94723.88;;;17.86;62.70
72308;BME280;60257;42.638;23.376;2022-08-05T03:22:31;94721.91;;;17.94;62.06
72308;BME280;60257;42.638;23.376;2022-08-05T03:24:58;94730.59;;;17.89;62.13
72308;BME280;60257;42.638;23.376;2022-08-05T03:27:24;94723.09;;;17.79;62.30
72308;BME280;60257;42.638;23.376;2022-08-05T03:29:50;94723.09;;;17.75;62.24
72308;BME280;60257;42.638;23.376;2022-08-05T03:32:16;94724.28;;;17.81;62.14
72308;BME280;60257;42.638;23.376;2022-08-05T03:34:44;94717.56;;;17.86;62.02
72308;BME280;60257;42.638;23.376;2022-08-05T03:37:10;94720.34;;;17.86;61.52
72308;BME280;60257;42.638;23.376;2022-08-05T03:39:36;94721.53;;;17.92;61.84
72308;BME280;60257;42.638;23.376;2022-08-05T03:42:02;94718.75;;;17.85;61.66
72308;BME280;60257;42.638;23.376;2022-08-05T03:44:28;94725.06;;;17.85;61.90
72308;BME280;60257;42.638;23.376;2022-08-05T03:46:53;94721.53;;;17.78;62.55
72308;BME280;60257;42.638;23.376;2022-08-05T03:49:19;94721.50;;;17.85;62.40
72308;BME280;60257;42.638;23.376;2022-08-05T03:56:49;94725.47;;;17.84;62.75
72308;BME280;60257;42.638;23.376;2022-08-05T03:59:31;94724.28;;;17.85;63.20
72308;BME280;60257;42.638;23.376;2022-08-05T04:02:00;94725.84;;;17.89;62.98
72308;BME280;60257;42.638;23.376;2022-08-05T04:04:28;94729.44;;;17.93;62.84
72308;BME280;60257;42.638;23.376;2022-08-05T04:06:55;94727.84;;;18.10;61.70
72308;BME280;60257;42.638;23.376;2022-08-05T04:09:21;94724.66;;;18.18;62.08
72308;BME280;60257;42.638;23.376;2022-08-05T04:11:48;94729.41;;;18.32;61.04
72308;BME280;60257;42.638;23.376;2022-08-05T04:14:15;94724.25;;;18.41;61.19
72308;BME280;60257;42.638;23.376;2022-08-05T04:16:40;94723.44;;;18.44;60.99
72308;BME280;60257;42.638;23.376;2022-08-05T04:19:10;94723.81;;;18.64;60.10
72308;BME280;60257;42.638;23.376;2022-08-05T04:21:36;94724.22;;;18.45;61.46
72308;BME280;60257;42.638;23.376;2022-08-05T04:24:01;94721.09;;;18.32;61.80
72308;BME280;60257;42.638;23.376;2022-08-05T04:26:28;94716.34;;;18.29;62.11
72308;BME280;60257;42.638;23.376;2022-08-05T04:28:54;94718.72;;;18.34;61.86
72308;BME280;60257;42.638;23.376;2022-08-05T04:31:19;94723.03;;;18.42;61.98
72308;BME280;60257;42.638;23.376;2022-08-05T04:33:44;94725.00;;;18.52;61.41
72308;BME280;60257;42.638;23.376;2022-08-05T04:36:10;94727.38;;;18.68;61.14
72308;BME280;60257;42.638;23.376;2022-08-05T04:38:36;94723.75;;;18.82;61.16
72308;BME280;60257;42.638;23.376;2022-08-05T04:41:02;94723.34;;;18.87;61.31
72308;BME280;60257;42.638;23.376;2022-08-05T04:43:27;94712.66;;;18.92;61.38
72308;BME280;60257;42.638;23.376;2022-08-05T04:45:53;94709.53;;;18.80;62.22
72308;BME280;60257;42.638;23.376;2022-08-05T04:48:19;94723.38;;;18.80;61.69
72308;BME280;60257;42.638;23.376;2022-08-05T04:50:47;94720.16;;;18.92;61.34
72308;BME280;60257;42.638;23.376;2022-08-05T04:53:16;94726.44;;;19.10;61.29
72308;BME280;60257;42.638;23.376;2022-08-05T04:55:43;94723.56;;;19.28;60.51
72308;BME280;60257;42.638;23.376;2022-08-05T04:58:11;94728.25;;;19.41;60.81
72308;BME280;60257;42.638;23.376;2022-08-05T05:00:38;94723.84;;;19.55;59.57
72308;BME280;60257;42.638;23.376;2022-08-05T05:03:05;94722.97;;;19.68;59.83
72308;BME280;60257;42.638;23.376;2022-08-05T05:05:31;94719.72;;;19.77;59.34
72308;BME280;60257;42.638;23.376;2022-08-05T05:08:02;94718.84;;;19.90;58.79
72308;BME280;60257;42.638;23.376;2022-08-05T05:10:29;94719.44;;;20.16;58.33
72308;BME280;60257;42.638;23.376;2022-08-05T05:12:55;94718.59;;;20.22;57.49
72308;BME280;60257;42.638;23.376;2022-08-05T05:15:21;94725.88;;;20.02;58.03
72308;BME280;60257;42.638;23.376;2022-08-05T05:17:47;94721.91;;;20.03;58.57
72308;BME280;60257;42.638;23.376;2022-08-05T05:20:13;94722.72;;;20.00;58.63
72308;BME280;60257;42.638;23.376;2022-08-05T05:22:39;94723.63;;;19.86;58.39
72308;BME280;60257;42.638;23.376;2022-08-05T05:25:05;94714.91;;;19.88;58.85
72308;BME280;60257;42.638;23.376;2022-08-05T05:27:32;94721.09;;;20.06;58.49
72308;BME280;60257;42.638;23.376;2022-08-05T05:29:58;94711.94;;;20.09;59.36
72308;BME280;60257;42.638;23.376;2022-08-05T05:32:24;94711.81;;;20.23;59.06
72308;BME280;60257;42.638;23.376;2022-08-05T05:34:49;94713.41;;;20.24;59.23
72308;BME280;60257;42.638;23.376;2022-08-05T05:37:15;94706.63;;;20.33;59.12
72308;BME280;60257;42.638;23.376;2022-08-05T05:39:41;94702.13;;;20.46;58.68
72308;BME280;60257;42.638;23.376;2022-08-05T05:42:07;94711.50;;;20.59;58.04
72308;BME280;60257;42.638;23.376;2022-08-05T05:44:32;94715.72;;;20.74;56.64
72308;BME280;60257;42.638;23.376;2022-08-05T05:46:58;94712.88;;;20.81;56.60
72308;BME280;60257;42.638;23.376;2022-08-05T05:49:24;94717.53;;;20.88;56.79
72308;BME280;60257;42.638;23.376;2022-08-05T05:51:50;94711.53;;;20.93;56.89
72308;BME280;60257;42.638;23.376;2022-08-05T05:54:16;94710.16;;;21.08;56.18
72308;BME280;60257;42.638;23.376;2022-08-05T05:56:41;94711.31;;;21.10;56.13
72308;BME280;60257;42.638;23.376;2022-08-05T05:59:06;94723.22;;;21.14;55.84
72308;BME280;60257;42.638;23.376;2022-08-05T06:01:39;94720.91;;;21.40;55.01
72308;BME280;60257;42.638;23.376;2022-08-05T06:04:07;94721.19;;;21.45;55.35
72308;BME280;60257;42.638;23.376;2022-08-05T06:06:34;94724.16;;;21.35;55.64
72308;BME280;60257;42.638;23.376;2022-08-05T06:08:59;94726.16;;;21.31;55.37
72308;BME280;60257;42.638;23.376;2022-08-05T06:11:25;94725.84;;;21.25;56.14
72308;BME280;60257;42.638;23.376;2022-08-05T06:13:50;94726.06;;;21.38;57.43
72308;BME280;60257;42.638;23.376;2022-08-05T06:16:16;94729.06;;;21.50;57.06
72308;BME280;60257;42.638;23.376;2022-08-05T06:18:41;94727.06;;;21.54;56.85
72308;BME280;60257;42.638;23.376;2022-08-05T06:21:07;94732.66;;;21.78;54.29
72308;BME280;60257;42.638;23.376;2022-08-05T06:23:32;94726.81;;;21.99;53.66
72308;BME280;60257;42.638;23.376;2022-08-05T06:25:58;94719.88;;;21.84;53.85
72308;BME280;60257;42.638;23.376;2022-08-05T06:28:23;94723.31;;;21.91;54.61
72308;BME280;60257;42.638;23.376;2022-08-05T06:30:49;94721.19;;;22.02;53.70
72308;BME280;60257;42.638;23.376;2022-08-05T06:33:15;94723.28;;;21.95;55.56
72308;BME280;60257;42.638;23.376;2022-08-05T06:35:40;94722.59;;;22.14;53.44
72308;BME280;60257;42.638;23.376;2022-08-05T06:38:05;94719.75;;;22.18;53.52
72308;BME280;60257;42.638;23.376;2022-08-05T06:40:31;94717.59;;;22.52;51.83
72308;BME280;60257;42.638;23.376;2022-08-05T06:42:56;94718.81;;;22.28;52.94
72308;BME280;60257;42.638;23.376;2022-08-05T06:45:22;94725.56;;;22.27;54.00
72308;BME280;60257;42.638;23.376;2022-08-05T06:47:48;94720.72;;;22.31;53.98
72308;BME280;60257;42.638;23.376;2022-08-05T06:50:14;94718.31;;;22.33;54.09
72308;BME280;60257;42.638;23.376;2022-08-05T06:52:39;94717.28;;;22.46;55.29
72308;BME280;60257;42.638;23.376;2022-08-05T06:55:05;94710.16;;;22.65;53.66
72308;BME280;60257;42.638;23.376;2022-08-05T06:57:31;94717.19;;;22.73;53.62
72308;BME280;60257;42.638;23.376;2022-08-05T06:59:57;94715.88;;;22.81;52.27
72308;BME280;60257;42.638;23.376;2022-08-05T07:02:22;94717.66;;;22.92;51.94
72308;BME280;60257;42.638;23.376;2022-08-05T07:04:48;94712.72;;;22.79;52.46
72308;BME280;60257;42.638;23.376;2022-08-05T07:07:13;94712.59;;;22.86;52.01
72308;BME280;60257;42.638;23.376;2022-08-05T07:09:38;94713.09;;;23.01;52.93
72308;BME280;60257;42.638;23.376;2022-08-05T07:12:04;94723.19;;;23.15;51.22
72308;BME280;60257;42.638;23.376;2022-08-05T07:14:30;94713.53;;;23.19;50.43
72308;BME280;60257;42.638;23.376;2022-08-05T07:17:14;94714.94;;;23.27;50.45
72308;BME280;60257;42.638;23.376;2022-08-05T07:19:39;94722.72;;;23.36;49.62
72308;BME280;60257;42.638;23.376;2022-08-05T07:22:05;94723.38;;;23.44;49.05
72308;BME280;60257;42.638;23.376;2022-08-05T07:24:30;94725.44;;;23.59;48.94
72308;BME280;60257;42.638;23.376;2022-08-05T07:26:56;94728.66;;;23.58;48.85
72308;BME280;60257;42.638;23.376;2022-08-05T07:29:21;94724.56;;;23.62;48.46
72308;BME280;60257;42.638;23.376;2022-08-05T07:31:46;94728.34;;;23.72;48.30
72308;BME280;60257;42.638;23.376;2022-08-05T07:34:12;94719.56;;;23.73;48.32
72308;BME280;60257;42.638;23.376;2022-08-05T07:36:38;94720.44;;;23.87;48.00
72308;BME280;60257;42.638;23.376;2022-08-05T07:39:05;94724.13;;;24.16;46.73
72308;BME280;60257;42.638;23.376;2022-08-05T07:41:31;94711.47;;;24.11;46.46
72308;BME280;60257;42.638;23.376;2022-08-05T07:43:58;94725.78;;;23.97;47.53
72308;BME280;60257;42.638;23.376;2022-08-05T07:46:28;94724.13;;;24.00;47.68
72308;BME280;60257;42.638;23.376;2022-08-05T07:48:55;94713.16;;;24.25;47.14
72308;BME280;60257;42.638;23.376;2022-08-05T07:51:21;94712.84;;;24.23;47.48
72308;BME280;60257;42.638;23.376;2022-08-05T07:53:46;94712.13;;;24.19;48.10
72308;BME280;60257;42.638;23.376;2022-08-05T07:56:12;94713.97;;;24.26;48.35
72308;BME280;60257;42.638;23.376;2022-08-05T07:58:37;94718.31;;;24.27;47.38
72308;BME280;60257;42.638;23.376;2022-08-05T08:01:02;94719.28;;;24.36;47.30
72308;BME280;60257;42.638;23.376;2022-08-05T08:03:28;94715.56;;;24.88;45.82
72308;BME280;60257;42.638;23.376;2022-08-05T08:05:53;94711.50;;;25.05;45.19
72308;BME280;60257;42.638;23.376;2022-08-05T08:08:19;94715.56;;;24.88;45.55
72308;BME280;60257;42.638;23.376;2022-08-05T08:10:44;94718.16;;;24.79;45.66
72308;BME280;60257;42.638;23.376;2022-08-05T08:13:10;94708.94;;;24.82;46.17
72308;BME280;60257;42.638;23.376;2022-08-05T08:15:35;94711.25;;;24.99;46.27
72308;BME280;60257;42.638;23.376;2022-08-05T08:18:01;94705.38;;;25.10;46.13
72308;BME280;60257;42.638;23.376;2022-08-05T08:20:27;94702.56;;;25.10;45.75
72308;BME280;60257;42.638;23.376;2022-08-05T08:22:54;94702.97;;;25.25;44.24
72308;BME280;60257;42.638;23.376;2022-08-05T08:25:20;94700.41;;;25.30;44.35
72308;BME280;60257;42.638;23.376;2022-08-05T08:27:45;94699.31;;;25.40;45.47
72308;BME280;60257;42.638;23.376;2022-08-05T08:30:12;94698.28;;;25.47;44.35
72308;BME280;60257;42.638;23.376;2022-08-05T08:32:37;94695.88;;;25.62;44.42
72308;BME280;60257;42.638;23.376;2022-08-05T08:35:04;94702.63;;;25.64;43.52
72308;BME280;60257;42.638;23.376;2022-08-05T08:37:29;94699.28;;;25.69;42.34
72308;BME280;60257;42.638;23.376;2022-08-05T08:39:55;94696.47;;;25.82;41.88
72308;BME280;60257;42.638;23.376;2022-08-05T08:42:21;94699.50;;;25.87;41.69
72308;BME280;60257;42.638;23.376;2022-08-05T08:44:48;94694.78;;;25.97;41.24
72308;BME280;60257;42.638;23.376;2022-08-05T08:47:14;94699.28;;;26.07;41.80
72308;BME280;60257;42.638;23.376;2022-08-05T08:49:44;94695.22;;;26.21;41.11
72308;BME280;60257;42.638;23.376;2022-08-05T08:52:12;94693.69;;;26.33;39.54
72308;BME280;60257;42.638;23.376;2022-08-05T08:54:38;94695.22;;;26.46;39.06
72308;BME280;60257;42.638;23.376;2022-08-05T08:57:05;94693.28;;;26.56;38.25
72308;BME280;60257;42.638;23.376;2022-08-05T08:59:33;94691.16;;;26.60;38.83
72308;BME280;60257;42.638;23.376;2022-08-05T09:01:59;94689.13;;;26.60;38.21
72308;BME280;60257;42.638;23.376;2022-08-05T09:04:28;94692.06;;;26.57;38.36
72308;BME280;60257;42.638;23.376;2022-08-05T09:06:53;94686.25;;;26.51;38.23
72308;BME280;60257;42.638;23.376;2022-08-05T09:09:19;94685.78;;;26.53;38.31
72308;BME280;60257;42.638;23.376;2022-08-05T09:11:44;94678.03;;;26.57;38.23
72308;BME280;60257;42.638;23.376;2022-08-05T09:14:11;94672.19;;;26.64;37.56
72308;BME280;60257;42.638;23.376;2022-08-05T09:16:38;94671.59;;;26.69;36.05
72308;BME280;60257;42.638;23.376;2022-08-05T09:19:06;94663.47;;;26.84;35.69
72308;BME280;60257;42.638;23.376;2022-08-05T09:21:32;94666.28;;;26.84;35.75
72308;BME280;60257;42.638;23.376;2022-08-05T09:24:02;94658.31;;;26.95;36.34
72308;BME280;60257;42.638;23.376;2022-08-05T09:26:29;94661.19;;;27.04;36.29
72308;BME280;60257;42.638;23.376;2022-08-05T09:28:58;94661.13;;;27.17;35.29
72308;BME280;60257;42.638;23.376;2022-08-05T09:31:25;94659.97;;;27.27;35.14
72308;BME280;60257;42.638;23.376;2022-08-05T09:33:54;94655.28;;;27.33;34.48
72308;BME280;60257;42.638;23.376;2022-08-05T09:36:20;94658.16;;;27.42;34.41
72308;BME280;60257;42.638;23.376;2022-08-05T09:39:03;94654.84;;;27.34;35.14
72308;BME280;60257;42.638;23.376;2022-08-05T09:41:29;94652.81;;;27.35;35.53
72308;BME280;60257;42.638;23.376;2022-08-05T09:43:55;94650.66;;;27.61;33.65
72308;BME280;60257;42.638;23.376;2022-08-05T09:46:26;94645.47;;;27.50;34.41
72308;BME280;60257;42.638;23.376;2022-08-05T09:48:53;94644.47;;;27.44;34.58
72308;BME280;60257;42.638;23.376;2022-08-05T09:51:30;94641.09;;;27.49;34.28
72308;BME280;60257;42.638;23.376;2022-08-05T09:53:57;94641.09;;;27.49;34.29
72308;BME280;60257;42.638;23.376;2022-08-05T09:56:33;94639.25;;;27.55;33.96
72308;BME280;60257;42.638;23.376;2022-08-05T09:59:04;94625.53;;;27.57;34.05
72308;BME280;60257;42.638;23.376;2022-08-05T10:01:30;94630.19;;;27.91;34.07
72308;BME280;60257;42.638;23.376;2022-08-05T10:04:10;94637.19;;;28.17;33.56
72308;BME280;60257;42.638;23.376;2022-08-05T10:06:54;94637.78;;;28.12;32.96
72308;BME280;60257;42.638;23.376;2022-08-05T10:09:20;94635.41;;;28.11;33.21
72308;BME280;60257;42.638;23.376;2022-08-05T10:11:47;94626.28;;;28.19;33.04
72308;BME280;60257;42.638;23.376;2022-08-05T10:14:26;94623.38;;;28.10;33.30
72308;BME280;60257;42.638;23.376;2022-08-05T10:16:53;94622.72;;;28.37;31.74
72308;BME280;60257;42.638;23.376;2022-08-05T10:19:23;94616.91;;;28.22;32.49
72308;BME280;60257;42.638;23.376;2022-08-05T10:21:48;94620.19;;;28.30;32.86
72308;BME280;60257;42.638;23.376;2022-08-05T10:24:18;94620.19;;;28.30;33.04
72308;BME280;60257;42.638;23.376;2022-08-05T10:26:46;94617.25;;;28.33;33.60
72308;BME280;60257;42.638;23.376;2022-08-05T10:29:12;94610.06;;;28.41;32.01
72308;BME280;60257;42.638;23.376;2022-08-05T10:31:38;94611.00;;;28.38;32.08
72308;BME280;60257;42.638;23.376;2022-08-05T10:34:05;94604.59;;;28.38;32.47
72308;BME280;60257;42.638;23.376;2022-08-05T10:36:33;94608.03;;;28.42;31.94
72308;BME280;60257;42.638;23.376;2022-08-05T10:39:04;94611.47;;;28.46;32.29
72308;BME280;60257;42.638;23.376;2022-08-05T10:41:34;94605.06;;;28.55;32.15
72308;BME280;60257;42.638;23.376;2022-08-05T10:44:06;94601.69;;;28.87;31.28
72308;BME280;60257;42.638;23.376;2022-08-05T10:46:45;94593.84;;;29.00;30.95
72308;BME280;60257;42.638;23.376;2022-08-05T10:49:11;94600.88;;;28.96;31.67
72308;BME280;60257;42.638;23.376;2022-08-05T10:51:48;94594.03;;;28.97;30.80
72308;BME280;60257;42.638;23.376;2022-08-05T10:54:14;94588.41;;;28.97;31.13
72308;BME280;60257;42.638;23.376;2022-08-05T10:56:48;94592.59;;;29.01;31.67
72308;BME280;60257;42.638;23.376;2022-08-05T10:59:32;94585.59;;;28.97;30.51
72308;BME280;60257;42.638;23.376;2022-08-05T11:02:07;94588.69;;;28.99;31.37
72308;BME280;60257;42.638;23.376;2022-08-05T11:07:09;94573.84;;;28.98;30.65
72308;BME280;60257;42.638;23.376;2022-08-05T11:09:51;94574.59;;;29.17;30.47
72308;BME280;60257;42.638;23.376;2022-08-05T11:12:42;94577.75;;;29.10;30.89
72308;BME280;60257;42.638;23.376;2022-08-05T11:17:41;94567.03;;;29.50;29.90
72308;BME280;60257;42.638;23.376;2022-08-05T11:20:40;94566.94;;;29.26;30.76
72308;BME280;60257;42.638;23.376;2022-08-05T11:23:35;94565.50;;;29.40;30.96
72308;BME280;60257;42.638;23.376;2022-08-05T11:33:36;94568.38;;;29.64;30.42
72308;BME280;60257;42.638;23.376;2022-08-05T11:36:04;94559.31;;;29.60;30.10
72308;BME280;60257;42.638;23.376;2022-08-05T11:46:33;94551.06;;;29.56;30.30
72308;BME280;60257;42.638;23.376;2022-08-05T11:48:59;94545.91;;;29.55;30.62
72308;BME280;60257;42.638;23.376;2022-08-05T11:51:27;94548.50;;;29.67;31.89
72308;BME280;60257;42.638;23.376;2022-08-05T11:53:54;94548.34;;;29.71;30.50
72308;BME280;60257;42.638;23.376;2022-08-05T11:56:20;94538.22;;;29.88;30.14
72308;BME280;60257;42.638;23.376;2022-08-05T11:58:47;94541.72;;;30.31;28.94
72308;BME280;60257;42.638;23.376;2022-08-05T12:01:13;94536.88;;;30.31;28.41
72308;BME280;60257;42.638;23.376;2022-08-05T12:03:54;94534.59;;;30.21;29.54
72308;BME280;60257;42.638;23.376;2022-08-05T12:06:25;94527.75;;;30.75;28.79
72308;BME280;60257;42.638;23.376;2022-08-05T12:08:58;94539.22;;;30.57;29.80
72308;BME280;60257;42.638;23.376;2022-08-05T12:11:29;94528.53;;;30.61;29.24
72308;BME280;60257;42.638;23.376;2022-08-05T12:16:24;94527.75;;;30.75;27.87
72308;BME280;60257;42.638;23.376;2022-08-05T12:18:50;94522.69;;;30.40;28.33
72308;BME280;60257;42.638;23.376;2022-08-05T12:24:03;94525.59;;;30.07;28.93
72308;BME280;60257;42.638;23.376;2022-08-05T12:26:31;94530.41;;;30.16;27.93
72308;BME280;60257;42.638;23.376;2022-08-05T12:28:56;94523.94;;;30.25;27.36
72308;BME280;60257;42.638;23.376;2022-08-05T12:31:22;94520.63;;;30.02;28.29
72308;BME280;60257;42.638;23.376;2022-08-05T12:33:47;94519.25;;;29.98;28.97
72308;BME280;60257;42.638;23.376;2022-08-05T12:36:14;94521.41;;;30.03;28.56
72308;BME280;60257;42.638;23.376;2022-08-05T12:38:40;94515.06;;;30.17;28.33
72308;BME280;60257;42.638;23.376;2022-08-05T12:41:10;94514.75;;;30.39;27.70
72308;BME280;60257;42.638;23.376;2022-08-05T12:44:12;94509.38;;;30.79;27.60
72308;BME280;60257;42.638;23.376;2022-08-05T12:46:40;94507.25;;;30.89;27.12
72308;BME280;60257;42.638;23.376;2022-08-05T12:49:08;94497.94;;;30.97;27.16
72308;BME280;60257;42.638;23.376;2022-08-05T12:51:48;94501.47;;;31.22;27.11
72308;BME280;60257;42.638;23.376;2022-08-05T12:56:47;94498.22;;;31.44;26.61
72308;BME280;60257;42.638;23.376;2022-08-05T12:59:22;94489.34;;;31.51;26.84
72308;BME280;60257;42.638;23.376;2022-08-05T13:01:59;94493.31;;;31.73;26.61
72308;BME280;60257;42.638;23.376;2022-08-05T13:04:27;94492.22;;;32.06;26.95
72308;BME280;60257;42.638;23.376;2022-08-05T13:06:56;94492.00;;;31.89;26.69
72308;BME280;60257;42.638;23.376;2022-08-05T13:09:24;94491.44;;;31.85;26.45
72308;BME280;60257;42.638;23.376;2022-08-05T13:11:50;94479.00;;;31.48;27.15
72308;BME280;60257;42.638;23.376;2022-08-05T13:14:18;94482.66;;;31.33;27.25
72308;BME280;60257;42.638;23.376;2022-08-05T13:16:57;94482.88;;;31.15;27.71
72308;BME280;60257;42.638;23.376;2022-08-05T13:19:25;94477.69;;;30.99;27.60
72308;BME280;60257;42.638;23.376;2022-08-05T13:21:51;94478.66;;;30.96;27.52
72308;BME280;60257;42.638;23.376;2022-08-05T13:24:18;94475.06;;;30.95;27.55
72308;BME280;60257;42.638;23.376;2022-08-05T13:26:45;94477.41;;;30.97;27.01
72308;BME280;60257;42.638;23.376;2022-08-05T13:29:11;94476.81;;;30.93;27.82
72308;BME280;60257;42.638;23.376;2022-08-05T13:31:37;94478.34;;;30.79;27.93
72308;BME280;60257;42.638;23.376;2022-08-05T13:34:03;94475.53;;;30.79;28.14
72308;BME280;60257;42.638;23.376;2022-08-05T13:36:28;94471.28;;;30.45;28.03